Wildwood, NJ

1:31 AM EDT on April 28, 2017 (GMT -0400)
21 St Ave SARLO | | Change Station

Elev 0 ft 38.99 °N, 74.80 °W | Updated 7 seconds ago

Mostly Cloudy
Mostly Cloudy
60.8 °F
Feels Like 60.8 °F
N
4.0
Wind Variable Wind from WSW
Gusts 4.9 mph

Today
High -- | Low -- °F
--% Chance of Precip.
Yesterday
High -- | Low -- °F
Precip. -- in
Pressure 29.90 in
Visibility 10.0 miles
Clouds Clear
Dew Point 58 °F
Humidity 90%
Rainfall 0.00 in
Snow Depth Not available.
6:04 AM 7:49 PM
Waxing Crescent, 4% visible
METAR KWWD 280456Z AUTO 19007KT 10SM CLR 17/15 A2989 RMK AO2 SLP123 T01670150 402110117
Pressure 29.90 in
Visibility 10.0 miles
Clouds Clear
Dew Point 58 °F
Humidity 90%
Rainfall 0.00 in
Snow Depth Not available.
6:04 AM 7:49 PM
Waxing Crescent, 4% visible
METAR KWWD 280456Z AUTO 19007KT 10SM CLR 17/15 A2989 RMK AO2 SLP123 T01670150 402110117

Get Severe Weather Alerts

Thanks for signing up!

Be on the lookout for a verification email in your inbox.

You'll start receiving the daily forecast at 8 AM.

×

10-Day Weather Forecast

Almanac

Astronomy

Apr. 28, 2017 Rise Set
Actual Time
Civil Twilight
Nautical Twilight
Astronomical Twilight
Moon
Length of Visible Light
Length of Day
Tomorrow will be .
, % of the Moon is Illuminated

Today's Extremes

State Highs State Lows

Community

WunderPhotos

WunderBlog® & News

Nearby

Air Quality

  Air Quality AQ Index Pollutant
Not available.

Snow Depth

Station Depth Elevation

Earthquake Activity

City Distance Mag. Time & Date
Minimum magnitude displayed is 2.5.

Coastal Water Temperatures

Place Temperature

Stations

Nearby Weather Stations

Station Location Temp. Windchill Dew Point Humidity Wind Precip. Elev Updated Type
                   

Watches & Warnings

There are currently no watches in effect.